createdAt,value
2022-08-04T00:00:09.212Z,99598.97
2022-08-04T00:02:41.687Z,99597.16
2022-08-04T00:05:24.617Z,99605.34
2022-08-04T00:08:15.779Z,99605.34
2022-08-04T00:10:48.841Z,99607.91
2022-08-04T00:13:22.313Z,99598.97
2022-08-04T00:16:12.623Z,99607.03
2022-08-04T00:18:54.497Z,99597.16
2022-08-04T00:21:23.925Z,99597.03
2022-08-04T00:24:10.669Z,99599.56
2022-08-04T00:26:41.304Z,99605.22
2022-08-04T00:29:08.172Z,99598.56
2022-08-04T00:31:57.082Z,99599.56
2022-08-04T00:34:28.687Z,99592.75
2022-08-04T00:36:56.862Z,99597.78
2022-08-04T00:39:24.488Z,99589.53
2022-08-04T00:42:23.855Z,99591.28
2022-08-04T00:45:09.412Z,99602.19
2022-08-04T00:47:42.044Z,99606.63
2022-08-04T00:50:09.996Z,99610.91
2022-08-04T00:53:01.310Z,99610.09
2022-08-04T00:55:55.165Z,99612.91
2022-08-04T00:58:47.758Z,99617.53
2022-08-04T01:01:56.758Z,99620.09
2022-08-04T01:04:35.799Z,99625.34
2022-08-04T01:07:02.570Z,99625.22
2022-08-04T01:09:55.987Z,99625.09
2022-08-04T01:12:41.128Z,99630.47
2022-08-04T01:15:53.800Z,99631.19
2022-08-04T01:18:39.686Z,99626.88
2022-08-04T01:21:06.923Z,99636.28
2022-08-04T01:24:26.671Z,99635.78
2022-08-04T01:27:27.034Z,99633.44
2022-08-04T01:29:59.105Z,99633.19
2022-08-04T01:32:28.249Z,99632.81
2022-08-04T01:35:21.698Z,99631.41
2022-08-04T01:37:54.039Z,99627.91
2022-08-04T01:40:21.786Z,99619.47
2022-08-04T01:42:52.510Z,99619.19
2022-08-04T01:45:19.483Z,99618.34
2022-08-04T01:47:51.387Z,99616.53
2022-08-04T01:50:18.540Z,99618.34
2022-08-04T01:52:50.517Z,99622.84
2022-08-04T01:55:18.242Z,99621.13
2022-08-04T01:57:47.748Z,99615.06
2022-08-04T02:00:28.984Z,99618.47
2022-08-04T02:02:56.938Z,99617.34
2022-08-04T02:05:26.788Z,99619.66
2022-08-04T02:08:31.001Z,99620.63
2022-08-04T02:11:16.077Z,99618.69
2022-08-04T02:13:51.933Z,99620.25
2022-08-04T02:16:40.305Z,99616.47
2022-08-04T02:19:28.855Z,99615.34
2022-08-04T02:22:07.965Z,99616.94
2022-08-04T02:24:46.027Z,99621.47
2022-08-04T02:27:22.085Z,99621.31
2022-08-04T02:30:01.764Z,99620.19
2022-08-04T02:32:31.425Z,99619.34
2022-08-04T02:35:03.759Z,99625.69
2022-08-04T02:37:32.658Z,99622.75
2022-08-04T02:40:05.299Z,99624.50
2022-08-04T02:42:33.039Z,99623.13
2022-08-04T02:45:00.933Z,99623.41
2022-08-04T02:48:29.630Z,99620.59
2022-08-04T02:50:25.404Z,99621.59
2022-08-04T02:53:00.605Z,99613.53
2022-08-04T02:55:29.720Z,99619.03
2022-08-04T02:58:02.400Z,99618.28
2022-08-04T03:00:29.186Z,99611.94
2022-08-04T03:03:26.260Z,99612.78
2022-08-04T03:06:11.560Z,99608.88
2022-08-04T03:09:07.929Z,99612.41
2022-08-04T03:11:49.708Z,99609.31
2022-08-04T03:14:52.745Z,99610.81
2022-08-04T03:17:59.718Z,99616.91
2022-08-04T03:20:41.720Z,99611.84
2022-08-04T03:23:54.846Z,99611.47
2022-08-04T03:26:36.733Z,99603.72
2022-08-04T03:29:36.003Z,99620.44
2022-08-04T03:32:06.615Z,99607.47
2022-08-04T03:35:00.999Z,99606.19
2022-08-04T03:37:52.429Z,99611.06
2022-08-04T03:40:19.115Z,99600.75
2022-08-04T03:43:07.474Z,99604.75
2022-08-04T03:45:54.326Z,99608.72
2022-08-04T03:48:53.792Z,99621.91
2022-08-04T03:52:01.484Z,99620.53
2022-08-04T03:54:53.241Z,99620.41
2022-08-04T03:57:32.417Z,99624.78
2022-08-04T04:00:07.083Z,99628.19
2022-08-04T04:03:10.529Z,99631.16
2022-08-04T04:05:58.656Z,99632.97
2022-08-04T04:09:08.073Z,99633.84
2022-08-04T04:12:03.203Z,99628.34
2022-08-04T04:14:32.741Z,99626.94
2022-08-04T04:17:29.045Z,99630.66
2022-08-04T04:20:14.504Z,99633.56
2022-08-04T04:22:51.241Z,99636.16
2022-08-04T04:25:40.942Z,99636.16
2022-08-04T04:28:47.106Z,99639.03
2022-08-04T04:31:55.808Z,99635.38
2022-08-04T04:34:46.360Z,99642.78
2022-08-04T04:37:31.533Z,99635.81
2022-08-04T04:40:13.582Z,99643.63
2022-08-04T04:42:54.768Z,99641.78
2022-08-04T04:45:24.878Z,99641.63
2022-08-04T04:48:10.821Z,99631.44
2022-08-04T04:51:08.995Z,99638.81
2022-08-04T04:53:52.163Z,99627.94
2022-08-04T04:56:49.004Z,99626.25
2022-08-04T04:59:20.720Z,99627.09
2022-08-04T05:02:18.450Z,99629.75
2022-08-04T05:04:58.518Z,99636.69
2022-08-04T05:07:43.209Z,99630.97
2022-08-04T05:10:37.972Z,99635.63
2022-08-04T05:14:37.626Z,99634.28
2022-08-04T05:16:06.148Z,99635.53
2022-08-04T05:18:38.964Z,99644.75
2022-08-04T05:21:49.093Z,99645.16
2022-08-04T05:24:19.676Z,99656.53
2022-08-04T05:26:53.852Z,99655.25
2022-08-04T05:29:31.910Z,99648.38
2022-08-04T05:32:02.937Z,99649.34
2022-08-04T05:34:39.358Z,99650.66
2022-08-04T05:37:10.956Z,99647.84
2022-08-04T05:39:57.402Z,99647.69
2022-08-04T05:42:26.385Z,99651.16
2022-08-04T05:44:54.602Z,99644.72
2022-08-04T05:47:22.457Z,99655.34
2022-08-04T05:50:01.157Z,99649.91
2022-08-04T05:52:30.965Z,99649.94
2022-08-04T05:55:00.679Z,99655.75
2022-08-04T05:57:28.616Z,99658.44
2022-08-04T05:59:57.696Z,99648.44
2022-08-04T06:02:26.631Z,99656.81
2022-08-04T06:04:53.834Z,99651.56
2022-08-04T06:07:21.043Z,99655.13
2022-08-04T06:09:48.233Z,99650.41
2022-08-04T06:12:20.141Z,99655.13
2022-08-04T06:14:49.837Z,99656.50
2022-08-04T06:18:32.880Z,99655.13
2022-08-04T06:20:19.103Z,99651.56
2022-08-04T06:22:55.692Z,99653.28
2022-08-04T06:25:31.287Z,99653.13
2022-08-04T06:27:58.977Z,99652.28
2022-08-04T06:30:28.480Z,99665.31
2022-08-04T06:33:03.667Z,99658.38
2022-08-04T06:35:33.080Z,99657.00
2022-08-04T06:38:01.721Z,99660.09
2022-08-04T06:40:33.263Z,99652.59
2022-08-04T06:43:06.693Z,99653.91
2022-08-04T06:45:35.898Z,99660.38
2022-08-04T06:48:05.133Z,99657.28
2022-08-04T06:51:25.742Z,99661.53
2022-08-04T06:53:21.804Z,99660.72
2022-08-04T06:55:50.461Z,99655.81
2022-08-04T06:58:19.264Z,99658.38
2022-08-04T07:00:48.575Z,99653.47
2022-08-04T07:03:18.127Z,99662.28
2022-08-04T07:05:48.365Z,99656.00
2022-08-04T07:08:15.968Z,99653.81
2022-08-04T07:10:44.935Z,99661.25
2022-08-04T07:13:12.556Z,99659.22
2022-08-04T07:15:42.187Z,99660.91
2022-08-04T07:18:09.084Z,99663.16
2022-08-04T07:20:36.958Z,99667.88
2022-08-04T07:23:05.406Z,99663.16
2022-08-04T07:25:58.913Z,99661.63
2022-08-04T07:28:23.980Z,99664.63
2022-08-04T07:30:52.896Z,99665.63
2022-08-04T07:33:21.151Z,99670.72
2022-08-04T07:36:04.795Z,99665.44
2022-08-04T07:38:46.611Z,99655.50
2022-08-04T07:41:40.284Z,99646.78
2022-08-04T07:44:08.434Z,99647.38
2022-08-04T07:46:36.815Z,99644.44
2022-08-04T07:49:04.682Z,99650.66
2022-08-04T07:51:32.439Z,99651.41
2022-08-04T07:54:00.577Z,99648.63
2022-08-04T07:56:28.569Z,99651.44
2022-08-04T07:58:56.449Z,99641.81
2022-08-04T08:01:24.723Z,99645.78
2022-08-04T08:03:55.605Z,99641.56
2022-08-04T08:06:33.117Z,99642.31
2022-08-04T08:09:13.575Z,99635.34
2022-08-04T08:12:38.003Z,99636.53
2022-08-04T08:14:35.847Z,99628.72
2022-08-04T08:17:04.347Z,99631.06
2022-08-04T08:19:32.348Z,99640.81
2022-08-04T08:22:01.291Z,99639.56
2022-08-04T08:24:30.571Z,99642.25
2022-08-04T08:26:58.220Z,99644.41
2022-08-04T08:29:26.301Z,99635.78
2022-08-04T08:31:57.098Z,99650.94
2022-08-04T08:34:27.973Z,99639.56
2022-08-04T08:37:04.053Z,99633.88
2022-08-04T08:39:57.156Z,99636.56
2022-08-04T08:44:03.707Z,99636.50
2022-08-04T08:46:14.497Z,99631.50
2022-08-04T08:49:00.304Z,99641.84
2022-08-04T08:51:36.375Z,99627.31
2022-08-04T08:54:11.969Z,99626.44
2022-08-04T08:56:50.274Z,99624.50
2022-08-04T08:59:43.577Z,99622.31
2022-08-04T09:02:19.091Z,99612.88
2022-08-04T09:05:13.536Z,99617.16
2022-08-04T09:07:58.531Z,99611.88
2022-08-04T09:10:42.331Z,99615.13
2022-08-04T09:13:24.539Z,99616.84
2022-08-04T09:16:17.122Z,99617.00
2022-08-04T09:19:17.653Z,99614.16
2022-08-04T09:22:12.614Z,99612.56
2022-08-04T09:24:55.207Z,99609.94
2022-08-04T09:27:35.453Z,99607.31
2022-08-04T09:30:08.526Z,99602.47
2022-08-04T09:33:16.304Z,99604.41
2022-08-04T09:35:52.521Z,99607.16
2022-08-04T09:38:23.205Z,99601.88
2022-08-04T09:40:57.101Z,99604.31
2022-08-04T09:44:52.420Z,99603.78
2022-08-04T09:47:17.941Z,99597.66
2022-08-04T09:49:58.091Z,99608.34
2022-08-04T09:52:36.916Z,99607.72
2022-08-04T09:55:30.129Z,99609.88
2022-08-04T09:58:28.098Z,99610.09
2022-08-04T10:01:04.392Z,99598.34
2022-08-04T10:03:36.499Z,99591.06
2022-08-04T10:06:35.856Z,99585.75
2022-08-04T10:09:14.790Z,99582.97
2022-08-04T10:12:03.683Z,99580.75
2022-08-04T10:14:53.614Z,99576.28
2022-08-04T10:17:26.353Z,99573.44
2022-08-04T10:20:08.974Z,99570.28
2022-08-04T10:23:10.467Z,99570.19
2022-08-04T10:26:08.543Z,99564.81
2022-08-04T10:28:46.606Z,99559.56
2022-08-04T10:31:25.018Z,99570.25
2022-08-04T10:34:00.783Z,99558.63
2022-08-04T10:36:32.173Z,99562.97
2022-08-04T10:39:06.146Z,99560.50
2022-08-04T10:42:17.219Z,99568.34
2022-08-04T10:45:04.739Z,99569.19
2022-08-04T10:47:56.387Z,99574.56
2022-08-04T10:50:27.538Z,99576.72
2022-08-04T10:53:09.417Z,99572.63
2022-08-04T10:56:06.921Z,99585.63
2022-08-04T10:58:47.803Z,99575.94
2022-08-04T11:02:01.740Z,99573.22
2022-08-04T11:04:29.472Z,99572.38
2022-08-04T11:07:00.413Z,99580.00
2022-08-04T11:09:28.984Z,99572.50
2022-08-04T11:12:10.072Z,99569.63
2022-08-04T11:14:50.550Z,99567.59
2022-08-04T11:17:28.222Z,99576.03
2022-08-04T11:20:37.083Z,99575.44
2022-08-04T11:23:17.534Z,99572.31
2022-08-04T11:26:02.853Z,99570.19
2022-08-04T11:28:35.728Z,99574.44
2022-08-04T11:31:11.341Z,99563.63
2022-08-04T11:34:01.400Z,99564.72
2022-08-04T11:36:43.963Z,99567.09
2022-08-04T11:39:34.267Z,99557.03
2022-08-04T11:42:08.139Z,99551.47
2022-08-04T11:44:42.282Z,99549.47
2022-08-04T11:47:20.023Z,99538.91
2022-08-04T11:49:56.895Z,99537.47
2022-08-04T11:52:27.556Z,99530.25
2022-08-04T11:54:55.974Z,99532.25
2022-08-04T11:57:25.673Z,99533.56
2022-08-04T12:00:09.276Z,99541.38
2022-08-04T12:03:03.356Z,99547.22
2022-08-04T12:05:37.878Z,99560.94
2022-08-04T12:08:23.413Z,99565.00
2022-08-04T12:11:12.927Z,99555.38
2022-08-04T12:13:57.423Z,99549.53
2022-08-04T12:16:58.006Z,99548.16
2022-08-04T12:20:03.440Z,99542.00
2022-08-04T12:22:23.513Z,99537.25
2022-08-04T12:25:03.874Z,99541.44
2022-08-04T12:27:40.166Z,99538.34
2022-08-04T12:30:58.484Z,99532.25
2022-08-04T12:33:20.171Z,99523.53
2022-08-04T12:36:10.254Z,99509.91
2022-08-04T12:38:47.243Z,99506.47
2022-08-04T12:41:19.505Z,99507.41
2022-08-04T12:43:47.506Z,99512.03
2022-08-04T12:46:26.904Z,99513.91
2022-08-04T12:49:02.067Z,99509.88
2022-08-04T12:52:08.087Z,99506.94
2022-08-04T12:54:29.082Z,99500.69
2022-08-04T12:57:01.478Z,99489.06
2022-08-04T12:59:28.677Z,99490.75
2022-08-04T13:02:08.868Z,99477.56
2022-08-04T13:04:42.969Z,99478.13
2022-08-04T13:07:24.975Z,99493.63
2022-08-04T13:09:53.393Z,99488.09
2022-08-04T13:12:32.008Z,99495.34
2022-08-04T13:18:03.209Z,99557.94
2022-08-04T13:22:46.291Z,99601.25
2022-08-04T13:26:40.266Z,99571.66
2022-08-04T13:28:02.520Z,99578.94
2022-08-04T13:30:24.004Z,99520.44
2022-08-04T13:30:32.731Z,99574.16
2022-08-04T13:33:02.532Z,99581.25
2022-08-04T13:35:56.128Z,99579.53
2022-08-04T13:38:20.576Z,99576.09
2022-08-04T13:40:48.896Z,99586.03
2022-08-04T13:44:15.495Z,99580.03
2022-08-04T13:46:38.924Z,99584.56
2022-08-04T13:49:42.484Z,99585.81
2022-08-04T13:52:04.684Z,99598.47
2022-08-04T13:54:47.208Z,99598.81
2022-08-04T13:57:27.832Z,99602.34
2022-08-04T14:00:00.271Z,99591.19
2022-08-04T14:02:33.137Z,99589.16
2022-08-04T14:05:18.504Z,99586.03
2022-08-04T14:07:50.765Z,99582.25
2022-08-04T14:10:17.617Z,99570.31
2022-08-04T14:12:48.970Z,99574.56
2022-08-04T14:16:02.617Z,99565.63
2022-08-04T14:18:27.643Z,99566.47
2022-08-04T14:21:00.378Z,99566.31
2022-08-04T14:23:47.178Z,99564.13
2022-08-04T14:26:16.106Z,99557.31
2022-08-04T14:29:25.146Z,99549.69
2022-08-04T14:31:31.120Z,99550.22
2022-08-04T14:34:02.762Z,99544.59
2022-08-04T14:37:04.624Z,99537.50
2022-08-04T14:39:39.081Z,99542.41
2022-08-04T14:42:07.214Z,99535.25
2022-08-04T14:44:55.950Z,99539.03
2022-08-04T14:47:52.322Z,99524.47
2022-08-04T14:50:20.386Z,99532.59
2022-08-04T14:52:47.373Z,99534.97
2022-08-04T14:55:18.189Z,99543.44
2022-08-04T14:58:37.206Z,99544.47
2022-08-04T15:00:35.595Z,99545.81
2022-08-04T15:03:06.922Z,99545.81
2022-08-04T15:06:01.958Z,99548.81
2022-08-04T15:08:21.283Z,99546.13
2022-08-04T15:10:48.216Z,99551.13
2022-08-04T15:13:15.701Z,99547.63
2022-08-04T15:16:04.055Z,99542.94
2022-08-04T15:18:31.000Z,99541.78
2022-08-04T15:21:02.324Z,99535.72
2022-08-04T15:23:38.648Z,99543.03
2022-08-04T15:26:09.959Z,99540.88
2022-08-04T15:28:39.982Z,99550.06
2022-08-04T15:32:04.760Z,99552.53
2022-08-04T15:33:58.523Z,99543.94
2022-08-04T15:36:25.283Z,99549.16
2022-08-04T15:39:29.826Z,99551.25
2022-08-04T15:42:15.043Z,99560.06
2022-08-04T15:45:18.013Z,99557.34
2022-08-04T15:48:04.782Z,99560.72
2022-08-04T15:50:32.170Z,99559.56
2022-08-04T15:53:01.195Z,99562.25
2022-08-04T15:55:39.388Z,99553.25
2022-08-04T15:58:10.981Z,99553.94
2022-08-04T16:00:49.943Z,99553.44
2022-08-04T16:03:58.080Z,99554.09
2022-08-04T16:06:28.998Z,99557.31
2022-08-04T16:09:01.284Z,99555.47
2022-08-04T16:11:32.915Z,99558.19
2022-08-04T16:14:00.097Z,99557.16
2022-08-04T16:16:49.852Z,99562.59
2022-08-04T16:19:47.604Z,99565.03
2022-08-04T16:22:36.433Z,99568.59
2022-08-04T16:25:04.406Z,99571.09
2022-08-04T16:27:40.452Z,99577.38
2022-08-04T16:34:49.988Z,99567.69
2022-08-04T16:37:03.598Z,99568.84
2022-08-04T16:53:14.680Z,99596.16
2022-08-04T16:55:58.930Z,99594.94
2022-08-04T16:58:29.476Z,99601.13
2022-08-04T17:01:08.569Z,99595.94
2022-08-04T17:03:38.617Z,99601.56
2022-08-04T17:06:14.894Z,99598.03
2022-08-04T17:08:42.584Z,99600.09
2022-08-04T17:11:10.175Z,99587.63
2022-08-04T17:14:02.530Z,99586.84
2022-08-04T17:16:35.067Z,99587.81
2022-08-04T17:19:02.536Z,99588.84
2022-08-04T17:21:32.708Z,99581.78
2022-08-04T17:24:14.141Z,99582.66
2022-08-04T17:26:53.850Z,99582.69
2022-08-04T17:29:44.548Z,99588.09
2022-08-04T17:32:19.713Z,99586.38
2022-08-04T17:34:59.911Z,99591.50
2022-08-04T17:37:39.051Z,99597.84
2022-08-04T17:40:11.186Z,99603.78
2022-08-04T17:42:40.382Z,99596.28
2022-08-04T17:48:00.260Z,99598.69
2022-08-04T17:50:30.200Z,99597.41
2022-08-04T17:53:11.988Z,99590.03
2022-08-04T17:55:42.163Z,99598.09
2022-08-04T17:58:26.906Z,99597.78
2022-08-04T18:01:22.724Z,99598.59
2022-08-04T18:06:35.661Z,99600.94
2022-08-04T18:09:56.885Z,99604.28
2022-08-04T18:12:04.264Z,99603.13
2022-08-04T18:14:46.399Z,99604.09
2022-08-04T18:18:20.672Z,99603.59
2022-08-04T18:20:26.305Z,99606.00
2022-08-04T18:22:53.775Z,99609.06
2022-08-04T18:25:22.031Z,99613.03
2022-08-04T18:28:14.378Z,99607.34
2022-08-04T18:30:55.040Z,99606.72
2022-08-04T18:33:40.315Z,99606.84
2022-08-04T18:36:36.993Z,99593.69
2022-08-04T18:39:12.925Z,99592.13
2022-08-04T18:42:01.736Z,99597.06
2022-08-04T18:44:29.455Z,99595.00
2022-08-04T18:47:19.726Z,99602.22
2022-08-04T18:51:01.121Z,99590.88
2022-08-04T18:52:33.199Z,99593.69
2022-08-04T18:55:01.688Z,99597.38
2022-08-04T19:00:20.016Z,99595.88
2022-08-04T19:02:47.494Z,99603.22
2022-08-04T19:05:17.417Z,99602.41
2022-08-04T19:08:01.795Z,99606.19
2022-08-04T19:10:29.533Z,99607.41
2022-08-04T19:12:56.412Z,99599.34
2022-08-04T19:15:34.250Z,99590.91
2022-08-04T19:18:06.886Z,99590.06
2022-08-04T19:20:34.208Z,99588.47
2022-08-04T19:24:30.533Z,99589.47
2022-08-04T19:26:02.975Z,99588.28
2022-08-04T19:28:35.255Z,99594.09
2022-08-04T19:31:06.491Z,99595.94
2022-08-04T19:33:55.524Z,99604.25
2022-08-04T19:36:27.597Z,99589.59
2022-08-04T19:38:56.432Z,99588.72
2022-08-04T19:41:23.691Z,99589.59
2022-08-04T19:43:54.155Z,99589.34
2022-08-04T19:46:24.783Z,99591.03
2022-08-04T19:48:59.244Z,99590.31
2022-08-04T19:51:39.085Z,99594.84
2022-08-04T19:54:17.098Z,99596.06
2022-08-04T19:56:50.837Z,99600.34
2022-08-04T19:59:17.806Z,99590.66
2022-08-04T20:01:46.062Z,99580.78
2022-08-04T20:04:14.621Z,99590.78
2022-08-04T20:06:42.845Z,99583.84
2022-08-04T20:11:58.021Z,99585.72
2022-08-04T20:14:32.525Z,99579.03
2022-08-04T20:17:02.320Z,99576.88
2022-08-04T20:19:30.524Z,99583.47
2022-08-04T20:22:52.226Z,99578.59
2022-08-04T20:25:35.545Z,99583.78
2022-08-04T20:27:59.835Z,99586.84
2022-08-04T20:30:29.075Z,99585.53
2022-08-04T20:32:56.324Z,99581.50
2022-08-04T20:35:26.856Z,99590.81
2022-08-04T20:37:55.435Z,99590.81
2022-08-04T20:40:27.051Z,99593.59
2022-08-04T20:42:54.233Z,99591.53
2022-08-04T20:45:24.109Z,99594.06
2022-08-04T20:48:10.822Z,99580.78
2022-08-04T20:50:37.662Z,99584.47
2022-08-04T20:53:16.739Z,99588.00
2022-08-04T20:55:55.764Z,99583.34
2022-08-04T20:58:27.563Z,99582.38
2022-08-04T21:00:55.932Z,99584.94
2022-08-04T21:03:49.596Z,99593.81
2022-08-04T21:06:10.681Z,99585.78
2022-08-04T21:08:37.734Z,99590.31
2022-08-04T21:11:06.975Z,99584.94
2022-08-04T21:16:53.539Z,99596.75
2022-08-04T21:19:13.073Z,99597.13
2022-08-04T21:21:41.374Z,99603.84
2022-08-04T21:24:09.559Z,99599.56
2022-08-04T21:26:37.433Z,99590.81
2022-08-04T21:29:04.799Z,99598.13
2022-08-04T21:31:36.747Z,99589.22
2022-08-04T21:34:17.008Z,99598.25
2022-08-04T21:37:04.023Z,99588.63
2022-08-04T21:42:29.185Z,99584.47
2022-08-04T21:44:57.903Z,99580.94
2022-08-04T21:47:24.776Z,99585.94
2022-08-04T21:49:56.022Z,99583.25
2022-08-04T21:52:24.075Z,99585.94
2022-08-04T21:54:54.673Z,99581.78
2022-08-04T21:57:25.282Z,99579.47
2022-08-04T21:59:52.745Z,99573.09
2022-08-04T22:02:19.726Z,99570.69
2022-08-04T22:04:48.406Z,99570.56
2022-08-04T22:07:16.576Z,99573.09
2022-08-04T22:10:00.142Z,99572.38
2022-08-04T22:12:29.862Z,99573.22
2022-08-04T22:14:59.662Z,99565.94
2022-08-04T22:17:34.955Z,99563.25
2022-08-04T22:20:03.677Z,99568.63
2022-08-04T22:22:34.110Z,99570.56
2022-08-04T22:25:12.455Z,99571.56
2022-08-04T22:28:00.970Z,99567.16
2022-08-04T22:30:36.588Z,99570.09
2022-08-04T22:33:07.731Z,99565.81
2022-08-04T22:35:42.849Z,99560.59
2022-08-04T22:38:23.458Z,99559.84
2022-08-04T22:41:07.369Z,99561.94
2022-08-04T22:43:36.301Z,99558.66
2022-08-04T22:46:25.986Z,99566.09
2022-08-04T22:48:53.245Z,99562.78
2022-08-04T22:51:20.850Z,99567.53
2022-08-04T22:53:50.224Z,99568.91
2022-08-04T22:56:38.379Z,99572.09
2022-08-04T22:59:06.692Z,99574.13
2022-08-04T23:01:58.107Z,99570.84
2022-08-04T23:04:24.006Z,99579.38
2022-08-04T23:06:54.355Z,99572.47
2022-08-04T23:09:22.271Z,99563.06
2022-08-04T23:12:26.229Z,99568.91
2022-08-04T23:14:57.241Z,99567.34
2022-08-04T23:17:25.941Z,99574.63
2022-08-04T23:19:58.749Z,99572.22
2022-08-04T23:22:41.648Z,99564.44
2022-08-04T23:25:15.991Z,99563.66
2022-08-04T23:27:51.120Z,99561.00
2022-08-04T23:30:21.912Z,99559.44
2022-08-04T23:32:56.431Z,99565.75
2022-08-04T23:35:23.718Z,99567.69
2022-08-04T23:37:56.602Z,99561.75
2022-08-04T23:40:33.753Z,99575.25
2022-08-04T23:43:16.998Z,99578.53
2022-08-04T23:46:07.266Z,99579.03
2022-08-04T23:48:36.942Z,99572.59
2022-08-04T23:51:14.747Z,99572.22
2022-08-04T23:54:01.823Z,99569.91
2022-08-04T23:56:30.843Z,99571.72
2022-08-04T23:59:00.319Z,99577.22
